sensor_id;sensor_type;location;lat;lon;timestamp;P1;durP1;ratioP1;P2;durP2;ratioP2
7969;SDS011;4030;52.362;9.206;2023-02-05T00:00:32;3.87;;;3.47;;
7969;SDS011;4030;52.362;9.206;2023-02-05T00:02:58;4.77;;;3.10;;
7969;SDS011;4030;52.362;9.206;2023-02-05T00:05:24;3.53;;;3.20;;
7969;SDS011;4030;52.362;9.206;2023-02-05T00:07:50;5.03;;;3.50;;
7969;SDS011;4030;52.362;9.206;2023-02-05T00:10:16;3.27;;;2.70;;
7969;SDS011;4030;52.362;9.206;2023-02-05T00:12:42;3.60;;;2.93;;
7969;SDS011;4030;52.362;9.206;2023-02-05T00:15:09;3.37;;;2.80;;
7969;SDS011;4030;52.362;9.206;2023-02-05T00:17:35;4.17;;;2.90;;
7969;SDS011;4030;52.362;9.206;2023-02-05T00:20:01;3.33;;;2.50;;
7969;SDS011;4030;52.362;9.206;2023-02-05T00:22:28;3.40;;;3.00;;
7969;SDS011;4030;52.362;9.206;2023-02-05T00:24:54;4.07;;;2.70;;
7969;SDS011;4030;52.362;9.206;2023-02-05T00:27:20;3.07;;;2.50;;
7969;SDS011;4030;52.362;9.206;2023-02-05T00:29:45;2.87;;;2.57;;
7969;SDS011;4030;52.362;9.206;2023-02-05T00:32:11;3.10;;;2.67;;
7969;SDS011;4030;52.362;9.206;2023-02-05T00:34:37;4.17;;;2.80;;
7969;SDS011;4030;52.362;9.206;2023-02-05T00:37:03;3.50;;;2.57;;
7969;SDS011;4030;52.362;9.206;2023-02-05T00:39:29;4.00;;;3.13;;
7969;SDS011;4030;52.362;9.206;2023-02-05T00:41:55;3.93;;;2.90;;
7969;SDS011;4030;52.362;9.206;2023-02-05T00:44:21;3.20;;;2.60;;
7969;SDS011;4030;52.362;9.206;2023-02-05T00:46:47;3.73;;;2.77;;
7969;SDS011;4030;52.362;9.206;2023-02-05T00:49:13;3.33;;;2.87;;
7969;SDS011;4030;52.362;9.206;2023-02-05T00:51:39;3.57;;;2.70;;
7969;SDS011;4030;52.362;9.206;2023-02-05T00:54:05;4.03;;;2.73;;
7969;SDS011;4030;52.362;9.206;2023-02-05T00:56:31;3.30;;;2.70;;
7969;SDS011;4030;52.362;9.206;2023-02-05T00:58:57;3.67;;;2.73;;
7969;SDS011;4030;52.362;9.206;2023-02-05T01:01:24;2.93;;;2.63;;
7969;SDS011;4030;52.362;9.206;2023-02-05T01:03:50;3.50;;;2.87;;
7969;SDS011;4030;52.362;9.206;2023-02-05T01:06:16;3.57;;;2.90;;
7969;SDS011;4030;52.362;9.206;2023-02-05T01:08:42;3.53;;;2.53;;
7969;SDS011;4030;52.362;9.206;2023-02-05T01:11:08;3.20;;;2.90;;
7969;SDS011;4030;52.362;9.206;2023-02-05T01:13:35;2.93;;;2.57;;
7969;SDS011;4030;52.362;9.206;2023-02-05T01:16:02;3.37;;;2.70;;
7969;SDS011;4030;52.362;9.206;2023-02-05T01:18:29;3.90;;;2.90;;
7969;SDS011;4030;52.362;9.206;2023-02-05T01:20:54;2.90;;;2.60;;
7969;SDS011;4030;52.362;9.206;2023-02-05T01:23:20;3.00;;;2.70;;
7969;SDS011;4030;52.362;9.206;2023-02-05T01:25:46;2.90;;;2.50;;
7969;SDS011;4030;52.362;9.206;2023-02-05T01:28:12;3.33;;;2.83;;
7969;SDS011;4030;52.362;9.206;2023-02-05T01:30:38;3.20;;;2.73;;
7969;SDS011;4030;52.362;9.206;2023-02-05T01:33:04;3.00;;;2.70;;
7969;SDS011;4030;52.362;9.206;2023-02-05T01:35:31;3.17;;;2.67;;
7969;SDS011;4030;52.362;9.206;2023-02-05T01:37:57;3.13;;;2.80;;
7969;SDS011;4030;52.362;9.206;2023-02-05T01:40:23;3.37;;;2.70;;
7969;SDS011;4030;52.362;9.206;2023-02-05T01:42:49;3.87;;;2.57;;
7969;SDS011;4030;52.362;9.206;2023-02-05T01:47:47;3.00;;;2.40;;
7969;SDS011;4030;52.362;9.206;2023-02-05T01:50:42;3.37;;;2.70;;
7969;SDS011;4030;52.362;9.206;2023-02-05T01:53:35;3.80;;;2.77;;
7969;SDS011;4030;52.362;9.206;2023-02-05T01:56:12;3.60;;;2.70;;
7969;SDS011;4030;52.362;9.206;2023-02-05T01:58:51;3.27;;;2.93;;
7969;SDS011;4030;52.362;9.206;2023-02-05T02:01:28;2.90;;;2.50;;
7969;SDS011;4030;52.362;9.206;2023-02-05T02:03:55;3.30;;;2.77;;
7969;SDS011;4030;52.362;9.206;2023-02-05T02:06:21;3.20;;;2.90;;
7969;SDS011;4030;52.362;9.206;2023-02-05T02:08:47;3.17;;;2.70;;
7969;SDS011;4030;52.362;9.206;2023-02-05T02:11:13;3.30;;;2.67;;
7969;SDS011;4030;52.362;9.206;2023-02-05T02:13:41;4.07;;;2.70;;
7969;SDS011;4030;52.362;9.206;2023-02-05T02:16:10;2.90;;;2.60;;
7969;SDS011;4030;52.362;9.206;2023-02-05T02:18:36;3.13;;;2.70;;
7969;SDS011;4030;52.362;9.206;2023-02-05T02:21:08;3.00;;;2.40;;
7969;SDS011;4030;52.362;9.206;2023-02-05T02:23:50;3.20;;;2.20;;
7969;SDS011;4030;52.362;9.206;2023-02-05T02:29:47;3.10;;;2.50;;
7969;SDS011;4030;52.362;9.206;2023-02-05T02:32:24;2.93;;;2.50;;
7969;SDS011;4030;52.362;9.206;2023-02-05T02:35:06;2.73;;;2.10;;
7969;SDS011;4030;52.362;9.206;2023-02-05T02:37:44;2.83;;;2.20;;
7969;SDS011;4030;52.362;9.206;2023-02-05T02:40:21;2.83;;;2.30;;
7969;SDS011;4030;52.362;9.206;2023-02-05T02:45:28;2.47;;;2.20;;
7969;SDS011;4030;52.362;9.206;2023-02-05T02:47:58;3.47;;;2.30;;
7969;SDS011;4030;52.362;9.206;2023-02-05T02:50:47;3.13;;;2.47;;
7969;SDS011;4030;52.362;9.206;2023-02-05T02:53:16;2.70;;;2.27;;
7969;SDS011;4030;52.362;9.206;2023-02-05T02:55:51;2.17;;;1.97;;
7969;SDS011;4030;52.362;9.206;2023-02-05T02:58:21;2.77;;;2.20;;
7969;SDS011;4030;52.362;9.206;2023-02-05T03:00:51;2.53;;;2.13;;
7969;SDS011;4030;52.362;9.206;2023-02-05T03:03:19;3.30;;;2.10;;
7969;SDS011;4030;52.362;9.206;2023-02-05T03:05:48;2.73;;;2.23;;
7969;SDS011;4030;52.362;9.206;2023-02-05T03:08:18;2.90;;;2.20;;
7969;SDS011;4030;52.362;9.206;2023-02-05T03:10:58;2.40;;;1.97;;
7969;SDS011;4030;52.362;9.206;2023-02-05T03:13:28;2.90;;;2.03;;
7969;SDS011;4030;52.362;9.206;2023-02-05T03:15:54;2.13;;;1.93;;
7969;SDS011;4030;52.362;9.206;2023-02-05T03:18:20;3.10;;;2.23;;
7969;SDS011;4030;52.362;9.206;2023-02-05T03:20:48;2.30;;;2.10;;
7969;SDS011;4030;52.362;9.206;2023-02-05T03:23:19;2.17;;;1.80;;
7969;SDS011;4030;52.362;9.206;2023-02-05T03:25:45;2.57;;;1.90;;
7969;SDS011;4030;52.362;9.206;2023-02-05T03:28:11;2.73;;;2.00;;
7969;SDS011;4030;52.362;9.206;2023-02-05T03:36:40;3.07;;;2.10;;
7969;SDS011;4030;52.362;9.206;2023-02-05T03:39:38;2.47;;;1.77;;
7969;SDS011;4030;52.362;9.206;2023-02-05T03:54:08;1.90;;;1.70;;
7969;SDS011;4030;52.362;9.206;2023-02-05T03:56:48;2.30;;;1.97;;
7969;SDS011;4030;52.362;9.206;2023-02-05T03:59:24;2.77;;;1.90;;
7969;SDS011;4030;52.362;9.206;2023-02-05T04:01:51;2.43;;;1.83;;
7969;SDS011;4030;52.362;9.206;2023-02-05T04:04:17;2.17;;;1.70;;
7969;SDS011;4030;52.362;9.206;2023-02-05T04:06:45;1.93;;;1.70;;
7969;SDS011;4030;52.362;9.206;2023-02-05T04:09:13;2.53;;;1.90;;
7969;SDS011;4030;52.362;9.206;2023-02-05T04:11:39;2.20;;;1.80;;
7969;SDS011;4030;52.362;9.206;2023-02-05T04:14:05;2.20;;;1.97;;
7969;SDS011;4030;52.362;9.206;2023-02-05T04:16:31;2.87;;;1.73;;
7969;SDS011;4030;52.362;9.206;2023-02-05T04:18:57;2.07;;;1.80;;
7969;SDS011;4030;52.362;9.206;2023-02-05T04:21:23;2.00;;;1.77;;
7969;SDS011;4030;52.362;9.206;2023-02-05T04:23:49;2.20;;;1.60;;
7969;SDS011;4030;52.362;9.206;2023-02-05T04:26:15;2.33;;;1.80;;
7969;SDS011;4030;52.362;9.206;2023-02-05T04:28:41;1.97;;;1.73;;
7969;SDS011;4030;52.362;9.206;2023-02-05T04:31:08;3.03;;;1.70;;
7969;SDS011;4030;52.362;9.206;2023-02-05T04:33:36;2.00;;;1.70;;
7969;SDS011;4030;52.362;9.206;2023-02-05T04:36:02;2.30;;;1.80;;
7969;SDS011;4030;52.362;9.206;2023-02-05T04:38:29;1.93;;;1.70;;
7969;SDS011;4030;52.362;9.206;2023-02-05T04:40:55;2.53;;;1.73;;
7969;SDS011;4030;52.362;9.206;2023-02-05T04:43:21;2.00;;;1.77;;
7969;SDS011;4030;52.362;9.206;2023-02-05T04:45:47;1.97;;;1.73;;
7969;SDS011;4030;52.362;9.206;2023-02-05T04:48:13;2.20;;;1.60;;
7969;SDS011;4030;52.362;9.206;2023-02-05T04:50:38;2.07;;;1.87;;
7969;SDS011;4030;52.362;9.206;2023-02-05T04:53:04;2.20;;;1.80;;
7969;SDS011;4030;52.362;9.206;2023-02-05T04:55:30;2.07;;;1.80;;
7969;SDS011;4030;52.362;9.206;2023-02-05T04:57:56;2.83;;;1.90;;
7969;SDS011;4030;52.362;9.206;2023-02-05T05:00:22;2.40;;;1.80;;
7969;SDS011;4030;52.362;9.206;2023-02-05T05:02:49;2.40;;;2.00;;
7969;SDS011;4030;52.362;9.206;2023-02-05T05:05:15;2.63;;;2.13;;
7969;SDS011;4030;52.362;9.206;2023-02-05T05:07:41;2.07;;;1.80;;
7969;SDS011;4030;52.362;9.206;2023-02-05T05:10:07;3.43;;;1.90;;
7969;SDS011;4030;52.362;9.206;2023-02-05T05:12:34;2.43;;;1.80;;
7969;SDS011;4030;52.362;9.206;2023-02-05T05:15:00;2.23;;;1.70;;
7969;SDS011;4030;52.362;9.206;2023-02-05T05:17:26;2.20;;;1.67;;
7969;SDS011;4030;52.362;9.206;2023-02-05T05:19:53;2.23;;;1.63;;
7969;SDS011;4030;52.362;9.206;2023-02-05T05:22:19;2.67;;;1.90;;
7969;SDS011;4030;52.362;9.206;2023-02-05T05:24:44;2.40;;;1.90;;
7969;SDS011;4030;52.362;9.206;2023-02-05T05:27:10;2.80;;;1.90;;
7969;SDS011;4030;52.362;9.206;2023-02-05T05:29:36;2.37;;;1.80;;
7969;SDS011;4030;52.362;9.206;2023-02-05T05:32:03;2.57;;;1.80;;
7969;SDS011;4030;52.362;9.206;2023-02-05T05:34:29;2.17;;;1.80;;
7969;SDS011;4030;52.362;9.206;2023-02-05T05:36:55;1.90;;;1.70;;
7969;SDS011;4030;52.362;9.206;2023-02-05T05:39:21;3.37;;;1.90;;
7969;SDS011;4030;52.362;9.206;2023-02-05T05:42:06;2.00;;;1.50;;
7969;SDS011;4030;52.362;9.206;2023-02-05T05:44:52;2.53;;;1.87;;
7969;SDS011;4030;52.362;9.206;2023-02-05T05:47:18;2.70;;;1.80;;
7969;SDS011;4030;52.362;9.206;2023-02-05T05:49:43;2.30;;;1.67;;
7969;SDS011;4030;52.362;9.206;2023-02-05T05:52:10;2.60;;;1.93;;
7969;SDS011;4030;52.362;9.206;2023-02-05T05:54:36;2.10;;;1.60;;
7969;SDS011;4030;52.362;9.206;2023-02-05T05:57:02;2.27;;;1.77;;
7969;SDS011;4030;52.362;9.206;2023-02-05T05:59:28;2.33;;;1.73;;
7969;SDS011;4030;52.362;9.206;2023-02-05T06:01:54;2.77;;;1.70;;
7969;SDS011;4030;52.362;9.206;2023-02-05T06:04:20;1.87;;;1.60;;
7969;SDS011;4030;52.362;9.206;2023-02-05T06:06:46;2.00;;;1.63;;
7969;SDS011;4030;52.362;9.206;2023-02-05T06:09:12;2.07;;;1.63;;
7969;SDS011;4030;52.362;9.206;2023-02-05T06:11:37;2.37;;;1.70;;
7969;SDS011;4030;52.362;9.206;2023-02-05T06:14:04;2.47;;;1.80;;
7969;SDS011;4030;52.362;9.206;2023-02-05T06:16:30;1.90;;;1.70;;
7969;SDS011;4030;52.362;9.206;2023-02-05T06:18:56;2.03;;;1.67;;
7969;SDS011;4030;52.362;9.206;2023-02-05T06:21:22;1.93;;;1.70;;
7969;SDS011;4030;52.362;9.206;2023-02-05T06:23:48;3.07;;;1.70;;
7969;SDS011;4030;52.362;9.206;2023-02-05T06:26:14;2.00;;;1.60;;
7969;SDS011;4030;52.362;9.206;2023-02-05T06:28:40;2.33;;;1.80;;
7969;SDS011;4030;52.362;9.206;2023-02-05T06:31:06;1.80;;;1.50;;
7969;SDS011;4030;52.362;9.206;2023-02-05T06:33:31;1.70;;;1.60;;
7969;SDS011;4030;52.362;9.206;2023-02-05T06:35:57;2.00;;;1.67;;
7969;SDS011;4030;52.362;9.206;2023-02-05T06:38:23;2.43;;;1.90;;
7969;SDS011;4030;52.362;9.206;2023-02-05T06:40:49;2.20;;;1.80;;
7969;SDS011;4030;52.362;9.206;2023-02-05T06:43:16;1.80;;;1.60;;
7969;SDS011;4030;52.362;9.206;2023-02-05T06:45:42;2.17;;;1.73;;
7969;SDS011;4030;52.362;9.206;2023-02-05T06:48:07;2.00;;;1.83;;
7969;SDS011;4030;52.362;9.206;2023-02-05T06:50:33;2.40;;;2.00;;
7969;SDS011;4030;52.362;9.206;2023-02-05T06:52:59;2.47;;;2.00;;
7969;SDS011;4030;52.362;9.206;2023-02-05T06:55:25;2.50;;;1.90;;
7969;SDS011;4030;52.362;9.206;2023-02-05T06:57:51;2.40;;;1.93;;
7969;SDS011;4030;52.362;9.206;2023-02-05T07:00:17;1.80;;;1.70;;
7969;SDS011;4030;52.362;9.206;2023-02-05T07:02:43;2.10;;;1.90;;
7969;SDS011;4030;52.362;9.206;2023-02-05T07:05:09;4.97;;;2.13;;
7969;SDS011;4030;52.362;9.206;2023-02-05T07:07:35;2.50;;;2.20;;
7969;SDS011;4030;52.362;9.206;2023-02-05T07:10:01;1.93;;;1.67;;
7969;SDS011;4030;52.362;9.206;2023-02-05T07:12:28;2.10;;;1.90;;
7969;SDS011;4030;52.362;9.206;2023-02-05T07:14:54;2.10;;;1.90;;
7969;SDS011;4030;52.362;9.206;2023-02-05T07:17:20;2.10;;;1.90;;
7969;SDS011;4030;52.362;9.206;2023-02-05T07:19:46;2.30;;;2.00;;
7969;SDS011;4030;52.362;9.206;2023-02-05T07:22:12;2.40;;;1.90;;
7969;SDS011;4030;52.362;9.206;2023-02-05T07:24:39;2.40;;;2.10;;
7969;SDS011;4030;52.362;9.206;2023-02-05T07:27:04;2.23;;;2.03;;
7969;SDS011;4030;52.362;9.206;2023-02-05T07:29:30;3.10;;;2.30;;
7969;SDS011;4030;52.362;9.206;2023-02-05T07:31:56;5.13;;;2.23;;
7969;SDS011;4030;52.362;9.206;2023-02-05T07:34:22;3.40;;;2.47;;
7969;SDS011;4030;52.362;9.206;2023-02-05T07:36:49;2.90;;;2.33;;
7969;SDS011;4030;52.362;9.206;2023-02-05T07:39:16;2.63;;;2.10;;
7969;SDS011;4030;52.362;9.206;2023-02-05T07:41:41;2.93;;;2.20;;
7969;SDS011;4030;52.362;9.206;2023-02-05T07:44:08;2.70;;;1.97;;
7969;SDS011;4030;52.362;9.206;2023-02-05T07:46:33;3.00;;;2.20;;
7969;SDS011;4030;52.362;9.206;2023-02-05T07:48:59;3.37;;;2.20;;
7969;SDS011;4030;52.362;9.206;2023-02-05T07:51:24;3.40;;;2.33;;
7969;SDS011;4030;52.362;9.206;2023-02-05T07:53:51;2.30;;;1.90;;
7969;SDS011;4030;52.362;9.206;2023-02-05T07:56:17;2.83;;;2.50;;
7969;SDS011;4030;52.362;9.206;2023-02-05T07:58:46;3.43;;;2.40;;
7969;SDS011;4030;52.362;9.206;2023-02-05T08:01:12;2.90;;;2.27;;
7969;SDS011;4030;52.362;9.206;2023-02-05T08:03:38;3.80;;;2.83;;
7969;SDS011;4030;52.362;9.206;2023-02-05T08:06:05;2.70;;;2.17;;
7969;SDS011;4030;52.362;9.206;2023-02-05T08:08:33;3.03;;;2.60;;
7969;SDS011;4030;52.362;9.206;2023-02-05T08:11:00;3.03;;;2.10;;
7969;SDS011;4030;52.362;9.206;2023-02-05T08:13:28;2.97;;;2.10;;
7969;SDS011;4030;52.362;9.206;2023-02-05T08:15:54;2.73;;;2.00;;
7969;SDS011;4030;52.362;9.206;2023-02-05T08:18:19;3.00;;;2.30;;
7969;SDS011;4030;52.362;9.206;2023-02-05T08:20:45;2.50;;;2.30;;
7969;SDS011;4030;52.362;9.206;2023-02-05T08:23:11;2.90;;;2.30;;
7969;SDS011;4030;52.362;9.206;2023-02-05T08:25:37;3.17;;;2.30;;
7969;SDS011;4030;52.362;9.206;2023-02-05T08:28:04;2.50;;;2.13;;
7969;SDS011;4030;52.362;9.206;2023-02-05T08:30:30;2.63;;;2.20;;
7969;SDS011;4030;52.362;9.206;2023-02-05T08:32:56;2.60;;;2.13;;
7969;SDS011;4030;52.362;9.206;2023-02-05T08:35:21;2.93;;;2.20;;
7969;SDS011;4030;52.362;9.206;2023-02-05T08:37:48;2.50;;;2.10;;
7969;SDS011;4030;52.362;9.206;2023-02-05T08:40:14;2.97;;;2.10;;
7969;SDS011;4030;52.362;9.206;2023-02-05T08:42:40;3.37;;;2.40;;
7969;SDS011;4030;52.362;9.206;2023-02-05T08:45:06;2.13;;;1.93;;
7969;SDS011;4030;52.362;9.206;2023-02-05T08:47:35;2.47;;;2.07;;
7969;SDS011;4030;52.362;9.206;2023-02-05T08:50:02;2.70;;;2.23;;
7969;SDS011;4030;52.362;9.206;2023-02-05T08:52:30;3.17;;;2.30;;
7969;SDS011;4030;52.362;9.206;2023-02-05T08:54:55;3.30;;;2.30;;
7969;SDS011;4030;52.362;9.206;2023-02-05T08:57:25;2.73;;;2.27;;
7969;SDS011;4030;52.362;9.206;2023-02-05T08:59:54;3.23;;;2.27;;
7969;SDS011;4030;52.362;9.206;2023-02-05T09:02:20;2.27;;;2.03;;
7969;SDS011;4030;52.362;9.206;2023-02-05T09:04:47;2.57;;;2.10;;
7969;SDS011;4030;52.362;9.206;2023-02-05T09:07:12;2.83;;;2.27;;
7969;SDS011;4030;52.362;9.206;2023-02-05T09:09:39;2.97;;;2.10;;
7969;SDS011;4030;52.362;9.206;2023-02-05T09:12:05;2.83;;;2.33;;
7969;SDS011;4030;52.362;9.206;2023-02-05T09:14:31;3.10;;;2.40;;
7969;SDS011;4030;52.362;9.206;2023-02-05T09:17:00;2.73;;;2.40;;
7969;SDS011;4030;52.362;9.206;2023-02-05T09:19:28;3.27;;;2.50;;
7969;SDS011;4030;52.362;9.206;2023-02-05T09:21:57;3.50;;;2.57;;
7969;SDS011;4030;52.362;9.206;2023-02-05T09:24:23;2.50;;;2.30;;
7969;SDS011;4030;52.362;9.206;2023-02-05T09:26:49;3.67;;;2.70;;
7969;SDS011;4030;52.362;9.206;2023-02-05T09:29:15;3.63;;;2.87;;
7969;SDS011;4030;52.362;9.206;2023-02-05T09:31:41;3.33;;;2.70;;
7969;SDS011;4030;52.362;9.206;2023-02-05T09:34:07;4.33;;;2.80;;
7969;SDS011;4030;52.362;9.206;2023-02-05T09:36:33;4.20;;;3.17;;
7969;SDS011;4030;52.362;9.206;2023-02-05T09:38:59;3.60;;;2.70;;
7969;SDS011;4030;52.362;9.206;2023-02-05T09:41:27;4.63;;;2.87;;
7969;SDS011;4030;52.362;9.206;2023-02-05T09:43:58;4.53;;;3.00;;
7969;SDS011;4030;52.362;9.206;2023-02-05T09:49:29;4.10;;;2.83;;
7969;SDS011;4030;52.362;9.206;2023-02-05T09:52:28;4.67;;;2.87;;
7969;SDS011;4030;52.362;9.206;2023-02-05T09:54:59;5.67;;;3.00;;
7969;SDS011;4030;52.362;9.206;2023-02-05T09:57:50;4.33;;;2.90;;
7969;SDS011;4030;52.362;9.206;2023-02-05T10:00:26;3.30;;;2.70;;
7969;SDS011;4030;52.362;9.206;2023-02-05T10:05:40;3.63;;;2.83;;
7969;SDS011;4030;52.362;9.206;2023-02-05T10:08:24;4.93;;;2.80;;
7969;SDS011;4030;52.362;9.206;2023-02-05T10:11:02;3.50;;;2.80;;
7969;SDS011;4030;52.362;9.206;2023-02-05T10:13:39;3.80;;;2.60;;
7969;SDS011;4030;52.362;9.206;2023-02-05T10:19:08;4.00;;;2.70;;
7969;SDS011;4030;52.362;9.206;2023-02-05T10:34:38;3.70;;;3.03;;
7969;SDS011;4030;52.362;9.206;2023-02-05T10:37:26;3.87;;;3.10;;
7969;SDS011;4030;52.362;9.206;2023-02-05T10:39:59;3.87;;;3.27;;
7969;SDS011;4030;52.362;9.206;2023-02-05T10:42:28;3.70;;;3.00;;
7969;SDS011;4030;52.362;9.206;2023-02-05T10:45:35;3.50;;;3.13;;
7969;SDS011;4030;52.362;9.206;2023-02-05T10:51:06;3.33;;;2.90;;
7969;SDS011;4030;52.362;9.206;2023-02-05T10:53:38;4.10;;;3.20;;
7969;SDS011;4030;52.362;9.206;2023-02-05T10:56:04;3.40;;;2.90;;
7969;SDS011;4030;52.362;9.206;2023-02-05T11:01:22;3.70;;;2.70;;
7969;SDS011;4030;52.362;9.206;2023-02-05T11:03:58;3.97;;;2.87;;
7969;SDS011;4030;52.362;9.206;2023-02-05T11:06:31;3.50;;;2.87;;
7969;SDS011;4030;52.362;9.206;2023-02-05T11:09:26;4.47;;;2.80;;
7969;SDS011;4030;52.362;9.206;2023-02-05T11:11:49;4.30;;;2.90;;
7969;SDS011;4030;52.362;9.206;2023-02-05T11:14:26;3.20;;;2.60;;
7969;SDS011;4030;52.362;9.206;2023-02-05T11:17:05;3.23;;;2.63;;
7969;SDS011;4030;52.362;9.206;2023-02-05T11:19:57;3.13;;;2.67;;
7969;SDS011;4030;52.362;9.206;2023-02-05T11:22:30;5.50;;;2.83;;
7969;SDS011;4030;52.362;9.206;2023-02-05T11:25:05;2.60;;;2.40;;
7969;SDS011;4030;52.362;9.206;2023-02-05T11:27:57;4.23;;;2.63;;
7969;SDS011;4030;52.362;9.206;2023-02-05T11:30:26;3.53;;;2.50;;
7969;SDS011;4030;52.362;9.206;2023-02-05T11:32:56;3.17;;;2.50;;
7969;SDS011;4030;52.362;9.206;2023-02-05T11:35:24;3.27;;;2.57;;
7969;SDS011;4030;52.362;9.206;2023-02-05T11:37:58;5.33;;;3.07;;
7969;SDS011;4030;52.362;9.206;2023-02-05T11:40:31;3.47;;;3.17;;
7969;SDS011;4030;52.362;9.206;2023-02-05T11:45:48;3.60;;;2.40;;
7969;SDS011;4030;52.362;9.206;2023-02-05T11:48:58;3.67;;;2.50;;
7969;SDS011;4030;52.362;9.206;2023-02-05T11:51:13;2.57;;;2.27;;
7969;SDS011;4030;52.362;9.206;2023-02-05T11:53:48;2.80;;;2.30;;
7969;SDS011;4030;52.362;9.206;2023-02-05T11:56:19;3.70;;;2.70;;
7969;SDS011;4030;52.362;9.206;2023-02-05T11:59:00;3.70;;;2.90;;
7969;SDS011;4030;52.362;9.206;2023-02-05T12:01:34;3.20;;;2.70;;
7969;SDS011;4030;52.362;9.206;2023-02-05T12:04:01;2.97;;;2.67;;
7969;SDS011;4030;52.362;9.206;2023-02-05T12:06:41;4.47;;;2.97;;
7969;SDS011;4030;52.362;9.206;2023-02-05T12:09:20;3.53;;;2.53;;
7969;SDS011;4030;52.362;9.206;2023-02-05T12:14:46;4.40;;;3.00;;
7969;SDS011;4030;52.362;9.206;2023-02-05T12:17:26;4.33;;;3.07;;
7969;SDS011;4030;52.362;9.206;2023-02-05T12:20:14;5.30;;;3.53;;
7969;SDS011;4030;52.362;9.206;2023-02-05T12:23:02;3.40;;;2.63;;
7969;SDS011;4030;52.362;9.206;2023-02-05T12:26:15;4.33;;;3.07;;
7969;SDS011;4030;52.362;9.206;2023-02-05T12:37:46;4.03;;;3.03;;
7969;SDS011;4030;52.362;9.206;2023-02-05T12:44:06;3.90;;;2.83;;
7969;SDS011;4030;52.362;9.206;2023-02-05T12:46:48;4.03;;;3.07;;
7969;SDS011;4030;52.362;9.206;2023-02-05T12:54:54;4.10;;;2.97;;
7969;SDS011;4030;52.362;9.206;2023-02-05T12:57:56;3.70;;;2.93;;
7969;SDS011;4030;52.362;9.206;2023-02-05T13:00:48;3.30;;;2.70;;
7969;SDS011;4030;52.362;9.206;2023-02-05T13:06:28;4.60;;;2.90;;
7969;SDS011;4030;52.362;9.206;2023-02-05T13:09:27;4.47;;;3.03;;
7969;SDS011;4030;52.362;9.206;2023-02-05T13:12:07;3.87;;;2.80;;
7969;SDS011;4030;52.362;9.206;2023-02-05T13:14:39;3.43;;;2.73;;
7969;SDS011;4030;52.362;9.206;2023-02-05T13:17:40;2.93;;;2.60;;
7969;SDS011;4030;52.362;9.206;2023-02-05T13:21:01;3.83;;;2.63;;
7969;SDS011;4030;52.362;9.206;2023-02-05T13:23:28;3.20;;;2.70;;
7969;SDS011;4030;52.362;9.206;2023-02-05T13:26:15;3.93;;;3.03;;
7969;SDS011;4030;52.362;9.206;2023-02-05T13:29:01;3.27;;;2.63;;
7969;SDS011;4030;52.362;9.206;2023-02-05T13:31:40;3.83;;;2.90;;
7969;SDS011;4030;52.362;9.206;2023-02-05T13:34:13;2.90;;;2.50;;
7969;SDS011;4030;52.362;9.206;2023-02-05T13:43:16;3.90;;;2.93;;
7969;SDS011;4030;52.362;9.206;2023-02-05T14:00:13;4.13;;;3.00;;
7969;SDS011;4030;52.362;9.206;2023-02-05T14:02:41;3.27;;;2.83;;
7969;SDS011;4030;52.362;9.206;2023-02-05T14:05:12;3.97;;;2.90;;
7969;SDS011;4030;52.362;9.206;2023-02-05T14:07:45;4.47;;;2.93;;
7969;SDS011;4030;52.362;9.206;2023-02-05T14:10:22;4.13;;;3.00;;
7969;SDS011;4030;52.362;9.206;2023-02-05T14:12:52;3.80;;;3.10;;
7969;SDS011;4030;52.362;9.206;2023-02-05T14:15:42;5.53;;;3.37;;
7969;SDS011;4030;52.362;9.206;2023-02-05T14:18:09;4.13;;;3.20;;
7969;SDS011;4030;52.362;9.206;2023-02-05T14:20:57;4.37;;;2.80;;
7969;SDS011;4030;52.362;9.206;2023-02-05T14:26:10;4.07;;;3.10;;
7969;SDS011;4030;52.362;9.206;2023-02-05T14:28:42;3.33;;;3.00;;
7969;SDS011;4030;52.362;9.206;2023-02-05T14:31:43;4.30;;;3.33;;
7969;SDS011;4030;52.362;9.206;2023-02-05T14:36:56;4.23;;;3.30;;
7969;SDS011;4030;52.362;9.206;2023-02-05T14:39:28;4.90;;;3.50;;
7969;SDS011;4030;52.362;9.206;2023-02-05T14:41:58;4.40;;;3.13;;
7969;SDS011;4030;52.362;9.206;2023-02-05T14:46:59;4.80;;;3.40;;
7969;SDS011;4030;52.362;9.206;2023-02-05T14:49:49;6.20;;;3.40;;
7969;SDS011;4030;52.362;9.206;2023-02-05T14:55:14;3.93;;;3.13;;
7969;SDS011;4030;52.362;9.206;2023-02-05T15:00:30;4.07;;;3.13;;
7969;SDS011;4030;52.362;9.206;2023-02-05T15:10:57;5.37;;;3.80;;
7969;SDS011;4030;52.362;9.206;2023-02-05T15:16:43;5.70;;;3.47;;
7969;SDS011;4030;52.362;9.206;2023-02-05T15:19:33;4.50;;;3.87;;
7969;SDS011;4030;52.362;9.206;2023-02-05T15:22:30;5.87;;;3.57;;
7969;SDS011;4030;52.362;9.206;2023-02-05T15:25:01;5.13;;;3.60;;
7969;SDS011;4030;52.362;9.206;2023-02-05T15:27:44;5.37;;;3.73;;
7969;SDS011;4030;52.362;9.206;2023-02-05T15:30:23;7.43;;;3.63;;
7969;SDS011;4030;52.362;9.206;2023-02-05T15:33:02;5.00;;;3.60;;
7969;SDS011;4030;52.362;9.206;2023-02-05T15:35:35;5.37;;;3.77;;
7969;SDS011;4030;52.362;9.206;2023-02-05T15:38:25;5.87;;;3.93;;
7969;SDS011;4030;52.362;9.206;2023-02-05T15:41:17;5.43;;;3.77;;
7969;SDS011;4030;52.362;9.206;2023-02-05T15:44:01;6.07;;;4.10;;
7969;SDS011;4030;52.362;9.206;2023-02-05T15:46:28;5.53;;;4.43;;
7969;SDS011;4030;52.362;9.206;2023-02-05T15:48:56;6.17;;;4.30;;
7969;SDS011;4030;52.362;9.206;2023-02-05T15:51:25;6.47;;;4.13;;
7969;SDS011;4030;52.362;9.206;2023-02-05T15:53:57;5.20;;;3.97;;
7969;SDS011;4030;52.362;9.206;2023-02-05T15:56:30;6.97;;;4.30;;
7969;SDS011;4030;52.362;9.206;2023-02-05T15:59:09;8.83;;;4.70;;
7969;SDS011;4030;52.362;9.206;2023-02-05T16:01:41;6.70;;;4.37;;
7969;SDS011;4030;52.362;9.206;2023-02-05T16:04:31;5.97;;;4.00;;
7969;SDS011;4030;52.362;9.206;2023-02-05T16:06:59;6.20;;;4.60;;
7969;SDS011;4030;52.362;9.206;2023-02-05T16:09:26;7.13;;;4.50;;
7969;SDS011;4030;52.362;9.206;2023-02-05T16:11:54;7.10;;;4.90;;
7969;SDS011;4030;52.362;9.206;2023-02-05T16:14:21;8.43;;;5.60;;
7969;SDS011;4030;52.362;9.206;2023-02-05T16:17:04;7.37;;;6.00;;
7969;SDS011;4030;52.362;9.206;2023-02-05T16:19:55;7.70;;;5.63;;
7969;SDS011;4030;52.362;9.206;2023-02-05T16:22:36;10.07;;;6.77;;
7969;SDS011;4030;52.362;9.206;2023-02-05T16:28:13;11.87;;;8.03;;
7969;SDS011;4030;52.362;9.206;2023-02-05T16:31:02;12.83;;;8.40;;
7969;SDS011;4030;52.362;9.206;2023-02-05T16:33:30;14.57;;;8.27;;
7969;SDS011;4030;52.362;9.206;2023-02-05T16:36:00;13.17;;;8.53;;
7969;SDS011;4030;52.362;9.206;2023-02-05T16:38:30;13.03;;;8.63;;
7969;SDS011;4030;52.362;9.206;2023-02-05T16:40:57;12.37;;;8.23;;
7969;SDS011;4030;52.362;9.206;2023-02-05T16:43:35;11.77;;;8.13;;
7969;SDS011;4030;52.362;9.206;2023-02-05T16:48:38;14.83;;;9.00;;
7969;SDS011;4030;52.362;9.206;2023-02-05T16:52:12;13.27;;;8.27;;
7969;SDS011;4030;52.362;9.206;2023-02-05T16:56:49;13.87;;;8.67;;
7969;SDS011;4030;52.362;9.206;2023-02-05T16:59:23;12.90;;;8.27;;
7969;SDS011;4030;52.362;9.206;2023-02-05T17:01:54;12.83;;;8.73;;
7969;SDS011;4030;52.362;9.206;2023-02-05T17:04:26;12.37;;;8.20;;
7969;SDS011;4030;52.362;9.206;2023-02-05T17:06:59;12.17;;;8.60;;
7969;SDS011;4030;52.362;9.206;2023-02-05T17:09:28;11.73;;;7.77;;
7969;SDS011;4030;52.362;9.206;2023-02-05T17:12:22;12.07;;;8.20;;
7969;SDS011;4030;52.362;9.206;2023-02-05T17:15:24;12.93;;;8.60;;
7969;SDS011;4030;52.362;9.206;2023-02-05T17:17:52;14.37;;;8.13;;
7969;SDS011;4030;52.362;9.206;2023-02-05T17:20:21;11.77;;;7.80;;
7969;SDS011;4030;52.362;9.206;2023-02-05T17:25:36;11.50;;;8.50;;
7969;SDS011;4030;52.362;9.206;2023-02-05T17:28:20;10.50;;;7.93;;
7969;SDS011;4030;52.362;9.206;2023-02-05T17:30:49;11.87;;;8.20;;
7969;SDS011;4030;52.362;9.206;2023-02-05T17:33:18;12.27;;;8.40;;
7969;SDS011;4030;52.362;9.206;2023-02-05T17:35:49;12.57;;;8.40;;
7969;SDS011;4030;52.362;9.206;2023-02-05T17:38:15;11.77;;;7.93;;
7969;SDS011;4030;52.362;9.206;2023-02-05T17:40:44;11.60;;;8.47;;
7969;SDS011;4030;52.362;9.206;2023-02-05T17:43:10;12.57;;;8.80;;
7969;SDS011;4030;52.362;9.206;2023-02-05T17:45:38;14.20;;;9.40;;
7969;SDS011;4030;52.362;9.206;2023-02-05T17:48:05;12.73;;;8.87;;
7969;SDS011;4030;52.362;9.206;2023-02-05T17:50:32;10.97;;;8.30;;
7969;SDS011;4030;52.362;9.206;2023-02-05T17:52:59;11.80;;;8.50;;
7969;SDS011;4030;52.362;9.206;2023-02-05T17:55:26;11.80;;;8.83;;
7969;SDS011;4030;52.362;9.206;2023-02-05T17:57:52;11.27;;;8.57;;